createdAt,value
2022-09-23T00:00:52.515Z,0.073080003
2022-09-23T00:01:48.934Z,0.073080003
2022-09-23T00:02:50.185Z,0.105560005
2022-09-23T00:03:44.673Z,0.121800005
2022-09-23T00:04:46.631Z,0.032480001
2022-09-23T00:05:43.854Z,0.040600002
2022-09-23T00:07:44.066Z,0.016240001
2022-09-23T00:08:43.018Z,0.097440004
2022-09-23T00:09:37.390Z,0.089320004
2022-09-23T00:10:36.748Z,0.073080003
2022-09-23T00:11:32.016Z,0.138040006
2022-09-23T00:12:31.049Z,0.138040006
2022-09-23T00:13:26.836Z,0.089320004
2022-09-23T00:14:25.934Z,0.081200004
2022-09-23T00:15:21.104Z,0.081200004
2022-09-23T00:16:20.835Z,0.064960003
2022-09-23T00:18:17.774Z,0.056840003
2022-09-23T00:19:14.215Z,0.081200004
2022-09-23T00:20:13.944Z,0.081200004
2022-09-23T00:21:08.626Z,0.048720002
2022-09-23T00:23:02.438Z,0.073080003
2022-09-23T00:24:04.341Z,0.138040006
2022-09-23T00:24:58.851Z,0.097440004
2022-09-23T00:26:01.055Z,0.00812
2022-09-23T00:26:53.678Z,0.081200004
2022-09-23T00:27:55.688Z,0.056840003
2022-09-23T00:28:49.059Z,0.138040006
2022-09-23T00:29:52.052Z,0.105560005
2022-09-23T00:30:44.604Z,0.113680005
2022-09-23T00:31:45.823Z,0.089320004
2022-09-23T00:32:47.640Z,0.056840003
2022-09-23T00:33:42.155Z,0.064960003
2022-09-23T00:34:47.411Z,0.089320004
2022-09-23T00:36:57.656Z,0.113680005
2022-09-23T00:37:58.250Z,0.097440004
2022-09-23T00:38:56.523Z,0.089320004
2022-09-23T00:39:54.595Z,0.081200004
2022-09-23T00:40:54.190Z,0.056840003
2022-09-23T00:42:52.024Z,0.064960003
2022-09-23T00:43:52.183Z,0.089320004
2022-09-23T00:44:51.615Z,0.129920006
2022-09-23T00:45:47.011Z,0.056840003
2022-09-23T00:46:47.200Z,0.016240001
2022-09-23T00:47:45.102Z,0.032480001
2022-09-23T00:48:45.321Z,0.081200004
2022-09-23T00:49:40.657Z,0.146160007
2022-09-23T00:50:45.340Z,0.138040006
2022-09-23T00:51:44.494Z,0.048720002
2022-09-23T00:52:44.015Z,0.089320004
2022-09-23T00:53:47.443Z,0.032480001
2022-09-23T00:54:45.905Z,0.105560005
2022-09-23T00:55:45.569Z,0.113680005
2022-09-23T00:57:44.075Z,0.056840003
2022-09-23T00:58:39.278Z,0.121800005
2022-09-23T00:59:37.581Z,0.089320004
2022-09-23T01:00:33.966Z,0.121800005
2022-09-23T01:01:40.602Z,0.073080003
2022-09-23T01:02:40.510Z,0.048720002
2022-09-23T01:03:39.366Z,0.129920006
2022-09-23T01:04:39.991Z,0.081200004
2022-09-23T01:07:29.449Z,0.064960003
2022-09-23T01:08:29.104Z,0.105560005
2022-09-23T01:09:31.826Z,0.089320004
2022-09-23T01:10:31.447Z,0.040600002
2022-09-23T01:12:29.222Z,0.073080003
2022-09-23T01:13:26.359Z,0.089320004
2022-09-23T01:14:29.328Z,0.081200004
2022-09-23T01:15:25.683Z,0.056840003
2022-09-23T01:16:31.659Z,0.097440004
2022-09-23T01:17:25.777Z,0.081200004
2022-09-23T01:18:29.277Z,0.097440004
2022-09-23T01:19:25.494Z,0.097440004
2022-09-23T01:20:27.633Z,0.121800005
2022-09-23T01:22:25.965Z,0.186760008
2022-09-23T01:23:28.337Z,0.146160007
2022-09-23T01:24:25.091Z,0.081200004
2022-09-23T01:25:28.087Z,0.048720002
2022-09-23T01:27:27.985Z,0.178640008
2022-09-23T01:28:24.366Z,0.056840003
2022-09-23T01:29:28.892Z,0.081200004
2022-09-23T01:30:23.219Z,0.056840003
2022-09-23T01:31:23.822Z,0.081200004
2022-09-23T01:32:23.919Z,0.138040006
2022-09-23T01:33:26.542Z,0.073080003
2022-09-23T01:34:32.430Z,0.048720002
2022-09-23T01:35:36.307Z,0.056840003
2022-09-23T01:37:47.828Z,0.081200004
2022-09-23T01:39:09.853Z,0.105560005
2022-09-23T01:40:08.348Z,0.105560005
2022-09-23T01:41:15.465Z,0.064960003
2022-09-23T01:43:10.868Z,0.081200004
2022-09-23T01:44:12.761Z,0.040600002
2022-09-23T01:45:13.549Z,0.105560005
2022-09-23T01:46:08.814Z,0.081200004
2022-09-23T01:48:08.909Z,0.154280007
2022-09-23T01:49:11.889Z,0.105560005
2022-09-23T01:50:11.089Z,0.105560005
2022-09-23T01:51:08.900Z,0.113680005
2022-09-23T01:53:04.878Z,0.121800005
2022-09-23T01:54:06.457Z,0.040600002
2022-09-23T01:55:05.719Z,0.097440004
2022-09-23T01:56:08.384Z,0.097440004
2022-09-23T01:57:06.424Z,0.032480001
2022-09-23T01:58:05.490Z,0.097440004
2022-09-23T01:59:01.678Z,0.089320004
2022-09-23T02:00:01.352Z,0.056840003
2022-09-23T02:00:58.024Z,0.089320004
2022-09-23T02:01:58.375Z,0.162400007
2022-09-23T02:03:02.192Z,0.064960003
2022-09-23T02:04:01.735Z,0.081200004
2022-09-23T02:05:06.763Z,0.113680005
2022-09-23T02:06:08.600Z,0.097440004
2022-09-23T02:07:05.989Z,0.064960003
2022-09-23T02:08:05.827Z,0.121800005
2022-09-23T02:09:44.669Z,0.113680005
2022-09-23T02:12:44.526Z,0.113680005
2022-09-23T02:13:47.369Z,0.048720002
2022-09-23T02:14:45.635Z,0.056840003
2022-09-23T02:15:40.850Z,0.121800005
2022-09-23T02:17:39.357Z,0.105560005
2022-09-23T02:18:43.926Z,0.040600002
2022-09-23T02:19:42.665Z,0.081200004
2022-09-23T02:20:41.254Z,0.064960003
2022-09-23T02:22:38.877Z,0.113680005
2022-09-23T02:23:38.191Z,0.089320004
2022-09-23T02:24:32.598Z,0.129920006
2022-09-23T02:25:29.436Z,-0.032480001
2022-09-23T02:26:27.529Z,0.081200004
2022-09-23T02:28:22.902Z,0.129920006
2022-09-23T02:29:19.281Z,0.056840003
2022-09-23T02:30:16.918Z,0.105560005
2022-09-23T02:31:15.073Z,0.113680005
2022-09-23T02:33:30.114Z,0.089320004
2022-09-23T02:34:21.680Z,0.129920006
2022-09-23T02:35:17.006Z,0.064960003
2022-09-23T02:36:17.062Z,0.081200004
2022-09-23T02:37:10.560Z,0.056840003
2022-09-23T02:38:11.465Z,0.105560005
2022-09-23T02:39:04.238Z,0.040600002
2022-09-23T02:41:30.794Z,0.097440004
2022-09-23T02:42:30.832Z,0.032480001
2022-09-23T02:43:29.779Z,0.154280007
2022-09-23T02:44:28.707Z,0.105560005
2022-09-23T02:45:24.958Z,0.073080003
2022-09-23T02:46:25.650Z,0.105560005
2022-09-23T02:47:26.214Z,0.040600002
2022-09-23T02:48:26.672Z,0.056840003
2022-09-23T02:49:26.462Z,0.056840003
2022-09-23T02:50:28.860Z,0.032480001
2022-09-23T02:51:24.343Z,0.040600002
2022-09-23T02:53:25.204Z,0.064960003
2022-09-23T02:54:20.167Z,0.089320004
2022-09-23T02:55:26.623Z,0.089320004
2022-09-23T02:56:20.804Z,0.081200004
2022-09-23T02:58:17.024Z,0.032480001
2022-09-23T02:59:21.239Z,0.081200004
2022-09-23T03:00:18.484Z,0.089320004
2022-09-23T03:01:21.319Z,0.081200004
2022-09-23T03:03:18.129Z,0.178640008
2022-09-23T03:04:19.891Z,0.024360001
2022-09-23T03:05:12.493Z,0.105560005
2022-09-23T03:06:16.185Z,0.089320004
2022-09-23T03:07:12.561Z,0.089320004
2022-09-23T03:08:13.477Z,0.048720002
2022-09-23T03:09:10.463Z,0.032480001
2022-09-23T03:10:09.306Z,0.032480001
2022-09-23T03:11:06.433Z,0.064960003
2022-09-23T03:12:07.714Z,0.040600002
2022-09-23T03:13:09.001Z,0.178640008
2022-09-23T03:15:36.373Z,0.073080003
2022-09-23T03:16:34.576Z,0.073080003
2022-09-23T03:17:34.974Z,0.105560005
2022-09-23T03:18:30.202Z,0.081200004
2022-09-23T03:19:31.264Z,0.073080003
2022-09-23T03:20:25.712Z,0.056840003
2022-09-23T03:21:32.245Z,0.129920006
2022-09-23T03:22:31.221Z,0.056840003
2022-09-23T03:23:26.546Z,0.162400007
2022-09-23T03:24:25.627Z,0.097440004
2022-09-23T03:25:21.700Z,0.00812
2022-09-23T03:26:20.754Z,0.040600002
2022-09-23T03:28:20.223Z,0.081200004
2022-09-23T03:29:12.876Z,0.105560005
2022-09-23T03:30:10.903Z,0.089320004
2022-09-23T03:31:12.448Z,0.113680005
2022-09-23T03:33:16.904Z,0.138040006
2022-09-23T03:34:11.270Z,0.089320004
2022-09-23T03:35:10.948Z,0.138040006
2022-09-23T03:36:12.848Z,0.146160007
2022-09-23T03:38:12.889Z,0.032480001
2022-09-23T03:39:14.942Z,0.081200004
2022-09-23T03:40:10.271Z,0.081200004
2022-09-23T03:41:13.965Z,0.073080003
2022-09-23T03:42:12.935Z,0.154280007
2022-09-23T03:43:14.505Z,0.064960003
2022-09-23T03:44:15.034Z,0.089320004
2022-09-23T03:45:10.377Z,0.113680005
2022-09-23T03:48:21.550Z,0.146160007
2022-09-23T03:49:26.980Z,0.081200004
2022-09-23T03:50:23.350Z,0.113680005
2022-09-23T03:51:19.843Z,0.097440004
2022-09-23T03:52:19.616Z,0.048720002
2022-09-23T03:53:15.036Z,0.081200004
2022-09-23T03:54:24.064Z,0.073080003
2022-09-23T03:55:25.733Z,0.056840003
2022-09-23T03:56:24.954Z,0.129920006
2022-09-23T03:57:28.150Z,0.113680005
2022-09-23T03:58:32.295Z,0.162400007
2022-09-23T03:59:30.482Z,0.073080003
2022-09-23T04:00:30.824Z,0.105560005
2022-09-23T04:01:26.129Z,0.016240001
2022-09-23T04:03:22.332Z,0.186760008
2022-09-23T04:04:24.442Z,0.032480001
2022-09-23T04:05:21.217Z,0.064960003
2022-09-23T04:06:22.264Z,0.113680005
2022-09-23T04:07:18.794Z,0.129920006
2022-09-23T04:08:27.562Z,0.056840003
2022-09-23T04:09:23.065Z,0.22736001
2022-09-23T04:10:23.548Z,0.105560005
2022-09-23T04:11:27.441Z,0.081200004
2022-09-23T04:13:29.017Z,0.089320004
2022-09-23T04:14:32.076Z,0.129920006
2022-09-23T04:15:27.348Z,0.040600002
2022-09-23T04:16:30.279Z,0.113680005
2022-09-23T04:18:35.671Z,0.113680005
2022-09-23T04:19:33.156Z,0.121800005
2022-09-23T04:20:32.023Z,0.089320004
2022-09-23T04:22:32.629Z,0.073080003
2022-09-23T04:23:35.553Z,0.105560005
2022-09-23T04:24:37.813Z,0.064960003
2022-09-23T04:25:42.480Z,0.056840003
2022-09-23T04:27:37.907Z,0.138040006
2022-09-23T04:28:39.602Z,0.203000009
2022-09-23T04:29:34.663Z,0.073080003
2022-09-23T04:30:36.307Z,0.073080003
2022-09-23T04:33:06.673Z,0.154280007
2022-09-23T04:34:50.441Z,0.113680005
2022-09-23T04:35:45.258Z,-0.016240001
2022-09-23T04:37:41.440Z,0.105560005
2022-09-23T04:38:44.195Z,0.129920006
2022-09-23T04:39:44.258Z,0.040600002
2022-09-23T04:40:44.713Z,0.121800005
2022-09-23T04:42:49.848Z,0.105560005
2022-09-23T04:43:54.408Z,0.032480001
2022-09-23T04:44:48.561Z,0.097440004
2022-09-23T04:46:28.356Z,0.113680005
2022-09-23T04:48:54.268Z,0.064960003
2022-09-23T04:49:55.524Z,0.040600002
2022-09-23T04:49:59.883Z,0.040600002
2022-09-23T04:50:52.725Z,0.040600002
2022-09-23T04:52:47.879Z,0.097440004
2022-09-23T04:53:43.277Z,0.089320004
2022-09-23T04:54:44.296Z,0.089320004
2022-09-23T04:55:39.355Z,0.073080003
2022-09-23T04:56:38.386Z,0.162400007
2022-09-23T04:57:37.389Z,0.105560005
2022-09-23T04:58:35.837Z,0.162400007
2022-09-23T04:59:30.222Z,0.154280007
2022-09-23T05:00:31.362Z,0.032480001
2022-09-23T05:01:24.348Z,0.162400007
2022-09-23T05:02:27.437Z,0.105560005
2022-09-23T05:03:19.020Z,0.048720002
2022-09-23T05:04:20.819Z,0.064960003
2022-09-23T05:05:16.235Z,0.154280007
2022-09-23T05:06:19.124Z,0.129920006
2022-09-23T05:07:21.907Z,0.040600002
2022-09-23T05:08:23.076Z,0.186760008
2022-09-23T05:09:14.545Z,0.129920006
2022-09-23T05:10:13.218Z,0.113680005
2022-09-23T05:11:13.205Z,0.064960003
2022-09-23T05:13:11.094Z,0.048720002
2022-09-23T05:14:17.450Z,0.064960003
2022-09-23T05:15:14.046Z,0.105560005
2022-09-23T05:16:13.264Z,0.097440004
2022-09-23T05:18:06.518Z,0.138040006
2022-09-23T05:19:01.135Z,0.121800005
2022-09-23T05:20:01.662Z,0.089320004
2022-09-23T05:20:55.439Z,0.032480001
2022-09-23T05:22:52.369Z,0.251720011
2022-09-23T05:23:52.246Z,0.129920006
2022-09-23T05:24:49.049Z,0.073080003
2022-09-23T05:25:46.477Z,0.129920006
2022-09-23T05:27:40.350Z,0.154280007
2022-09-23T05:28:39.515Z,0.129920006
2022-09-23T05:29:35.002Z,0.097440004
2022-09-23T05:30:36.062Z,0.121800005
2022-09-23T05:32:31.212Z,0.129920006
2022-09-23T05:33:22.740Z,0.251720011
2022-09-23T05:34:23.881Z,0.194880009
2022-09-23T05:35:15.316Z,0.129920006
2022-09-23T05:36:12.404Z,0.178640008
2022-09-23T05:39:40.214Z,0.235480011
2022-09-23T05:40:37.470Z,0.154280007
2022-09-23T05:41:40.056Z,0.170520008
2022-09-23T05:42:38.103Z,0.267960012
2022-09-23T05:43:39.156Z,0.186760008
2022-09-23T05:44:38.201Z,0.154280007
2022-09-23T05:45:44.939Z,0.243600011
2022-09-23T05:46:39.531Z,0.146160007
2022-09-23T05:47:44.220Z,0.186760008
2022-09-23T05:48:42.107Z,0.154280007
2022-09-23T05:49:58.497Z,0.211120009
2022-09-23T05:49:59.054Z,0.211120009
2022-09-23T05:49:59.595Z,0.211120009
2022-09-23T05:50:40.308Z,0.292320013
2022-09-23T05:52:35.770Z,0.21924001
2022-09-23T05:53:31.003Z,0.21924001
2022-09-23T05:54:30.470Z,0.276080012
2022-09-23T05:55:25.130Z,0.349160016
2022-09-23T05:56:25.423Z,0.316680014
2022-09-23T05:57:20.627Z,0.251720011
2022-09-23T05:58:23.116Z,0.276080012
2022-09-23T05:59:15.889Z,0.292320013
2022-09-23T06:00:16.150Z,0.332920015
2022-09-23T06:01:11.538Z,0.332920015
2022-09-23T06:03:14.635Z,0.292320013
2022-09-23T06:04:09.964Z,0.389760017
2022-09-23T06:05:11.354Z,0.292320013
2022-09-23T06:06:11.531Z,0.552160025
2022-09-23T06:07:03.930Z,0.341040015
2022-09-23T06:08:03.362Z,0.349160016
2022-09-23T06:09:05.544Z,0.324800014
2022-09-23T06:09:59.182Z,0.414120018
2022-09-23T06:10:58.333Z,0.292320013
2022-09-23T06:12:55.393Z,0.527800024
2022-09-23T06:13:50.625Z,0.503440022
2022-09-23T06:14:49.431Z,0.430360019
2022-09-23T06:15:45.846Z,0.381640017
2022-09-23T06:16:45.896Z,0.479080021
2022-09-23T06:17:40.277Z,0.495320022
2022-09-23T06:18:44.955Z,0.45472002
2022-09-23T06:19:37.519Z,0.470960021
2022-09-23T06:20:39.577Z,0.560280025
2022-09-23T06:21:33.916Z,0.292320013
2022-09-23T06:22:40.132Z,0.389760017
2022-09-23T06:23:32.999Z,0.332920015
2022-09-23T06:24:36.049Z,0.592760026
2022-09-23T06:25:28.776Z,0.535920024
2022-09-23T06:26:25.144Z,0.462840021
2022-09-23T06:29:28.536Z,0.706440032
2022-09-23T06:30:27.690Z,0.730800033
2022-09-23T06:31:28.796Z,0.66584003
2022-09-23T06:33:36.297Z,0.706440032
2022-09-23T06:33:36.778Z,0.706440032
2022-09-23T06:33:37.456Z,0.706440032
2022-09-23T06:34:25.711Z,0.844480038
2022-09-23T06:35:27.021Z,0.738920033
2022-09-23T06:35:27.816Z,0.738920033
2022-09-23T06:36:40.990Z,0.836360037
2022-09-23T06:36:42.083Z,0.836360037
2022-09-23T06:36:43.064Z,0.836360037
2022-09-23T06:38:20.201Z,0.933800042
2022-09-23T06:39:23.219Z,0.876960039
2022-09-23T06:40:17.599Z,0.828240037
2022-09-23T06:41:17.835Z,1.023120046
2022-09-23T06:42:13.269Z,1.088080049
2022-09-23T06:43:14.988Z,0.990640044
2022-09-23T06:44:10.241Z,1.104320049
2022-09-23T06:45:11.429Z,1.055600047
2022-09-23T06:46:07.017Z,0.868840039
2022-09-23T06:48:03.765Z,1.063719988
2022-09-23T06:49:03.373Z,0.860720038
2022-09-23T06:49:58.692Z,0.860720038
2022-09-23T06:51:01.684Z,1.136800051
2022-09-23T06:52:52.599Z,1.323559999
2022-09-23T06:53:52.923Z,0.941920042
2022-09-23T06:54:48.339Z,1.291079998
2022-09-23T06:55:51.273Z,1.242360115
2022-09-23T06:57:47.744Z,1.705200076
2022-09-23T06:58:41.331Z,1.144920111
2022-09-23T06:59:45.549Z,1.331680059
2022-09-23T07:00:39.903Z,1.502200127
2022-09-23T07:02:36.009Z,1.55092001
2022-09-23T07:03:39.033Z,1.356040001
2022-09-23T07:04:32.165Z,1.372280121
2022-09-23T07:05:36.966Z,1.502200127
2022-09-23T07:07:34.929Z,1.291079998
2022-09-23T07:08:31.148Z,1.607760072
2022-09-23T07:10:49.292Z,1.461600065
2022-09-23T07:12:47.893Z,1.299200058
2022-09-23T07:13:43.147Z,1.128679991
2022-09-23T07:14:44.702Z,1.526560068
2022-09-23T07:15:40.122Z,1.477840066
2022-09-23T07:17:34.898Z,1.591520071
2022-09-23T07:18:36.914Z,1.453480005
2022-09-23T07:19:31.449Z,1.153040051
2022-09-23T07:20:31.882Z,1.461600065
2022-09-23T07:21:27.346Z,1.518440008
2022-09-23T07:23:22.987Z,1.57528007
2022-09-23T07:24:22.696Z,1.274840117
2022-09-23T07:25:17.767Z,1.55092001
2022-09-23T07:26:18.225Z,1.421000004
2022-09-23T07:28:13.966Z,1.697080135
2022-09-23T07:29:09.237Z,1.818880081
2022-09-23T07:30:17.025Z,1.737680078
2022-09-23T07:30:23.839Z,1.737680078
2022-09-23T07:30:24.825Z,1.737680078
2022-09-23T07:31:07.666Z,1.55904007
2022-09-23T07:33:11.679Z,1.56716013
2022-09-23T07:33:25.478Z,1.56716013
2022-09-23T07:33:29.582Z,1.56716013
2022-09-23T07:34:02.481Z,1.997520089
2022-09-23T07:34:57.927Z,2.127439976
2022-09-23T07:35:58.707Z,1.867600083
2022-09-23T07:37:54.145Z,1.729560137
2022-09-23T07:38:49.340Z,1.705200076
2022-09-23T07:39:52.039Z,1.762040138
2022-09-23T07:40:45.648Z,1.948800087
2022-09-23T07:42:41.242Z,1.697080135
2022-09-23T07:43:41.325Z,2.00564003
2022-09-23T07:44:37.749Z,2.070600033
2022-09-23T07:45:40.613Z,2.127439976
2022-09-23T07:47:31.545Z,1.843240023
2022-09-23T07:48:34.457Z,2.411640167
2022-09-23T07:49:27.633Z,2.23300004
2022-09-23T07:50:25.650Z,2.273600101
2022-09-23T07:51:25.543Z,1.965040088
2022-09-23T07:52:26.744Z,2.346680164
2022-09-23T07:53:19.747Z,2.371040106
2022-09-23T07:54:54.535Z,2.062479973
2022-09-23T07:56:33.967Z,0.771400034
2022-09-23T07:58:15.070Z,2.111200094
2022-09-23T07:59:11.470Z,1.900080085
2022-09-23T08:00:11.671Z,2.054360151
2022-09-23T08:01:07.448Z,2.135560036
2022-09-23T08:02:08.019Z,2.314200163
2022-09-23T08:03:06.572Z,2.168040037
2022-09-23T08:04:02.069Z,2.103080034
2022-09-23T08:05:02.499Z,2.200520039
2022-09-23T08:05:58.770Z,2.614640236
2022-09-23T08:07:55.251Z,2.712080002
2022-09-23T08:08:58.684Z,2.736440182
2022-09-23T08:09:53.049Z,2.48472023
2022-09-23T08:10:55.295Z,2.988160133
2022-09-23T08:11:49.443Z,2.598400116
2022-09-23T08:12:50.817Z,2.46036005
2022-09-23T08:13:46.675Z,2.403520107
2022-09-23T08:14:45.877Z,2.630880117
2022-09-23T08:15:53.280Z,2.281720161
2022-09-23T08:15:55.590Z,2.281720161
2022-09-23T08:16:45.345Z,2.793280125
2022-09-23T08:17:42.276Z,2.541560173
2022-09-23T08:18:50.230Z,2.614640236
2022-09-23T08:19:40.954Z,2.379160166
2022-09-23T08:20:37.389Z,2.598400116
2022-09-23T08:22:36.260Z,2.151800156
2022-09-23T08:23:32.001Z,2.2411201
2022-09-23T08:24:35.288Z,1.997520089
2022-09-23T08:25:33.768Z,1.672720075
2022-09-23T08:26:28.627Z,1.78640008
2022-09-23T08:29:12.229Z,2.565920115
2022-09-23T08:30:49.572Z,-0.048720002
2022-09-23T08:31:28.702Z,2.379160166
2022-09-23T08:32:25.973Z,2.436000109
2022-09-23T08:33:25.828Z,2.809520245
2022-09-23T08:34:20.664Z,3.069360256
2022-09-23T08:35:20.445Z,3.272360086
2022-09-23T08:36:15.651Z,2.92320013
2022-09-23T08:37:15.060Z,3.361680031
2022-09-23T08:38:11.097Z,3.629640102
2022-09-23T08:39:09.903Z,3.231760025
2022-09-23T08:40:08.337Z,3.467240095
2022-09-23T08:41:04.424Z,2.955680132
2022-09-23T08:42:03.285Z,2.866360188
2022-09-23T08:42:59.087Z,3.329200268
2022-09-23T08:43:59.051Z,3.207400084
2022-09-23T08:44:56.123Z,3.158680201
2022-09-23T08:45:58.677Z,3.118080139
2022-09-23T08:46:51.137Z,3.085600138
2022-09-23T08:47:53.644Z,3.540320158
2022-09-23T08:48:46.187Z,3.483480215
2022-09-23T08:49:49.116Z,3.036880016
2022-09-23T08:50:42.517Z,2.622760057
2022-09-23T08:51:44.539Z,3.215520144
2022-09-23T08:52:37.119Z,3.304840088
2022-09-23T08:53:39.613Z,3.475360155
2022-09-23T08:54:34.757Z,3.621520042
2022-09-23T08:55:30.055Z,3.020640135
2022-09-23T08:56:29.528Z,2.728320122
2022-09-23T08:57:24.590Z,3.678360224
2022-09-23T08:58:25.930Z,3.491600037
2022-09-23T08:59:20.318Z,2.996280193
2022-09-23T09:00:19.717Z,2.906960011
2022-09-23T09:01:16.114Z,2.947560072
2022-09-23T09:02:16.338Z,2.630880117
2022-09-23T09:03:11.559Z,2.842000008
2022-09-23T09:04:13.999Z,3.004400253
2022-09-23T09:05:07.036Z,2.46848011
2022-09-23T09:06:05.032Z,2.525320053
2022-09-23T09:07:31.620Z,2.736440182
2022-09-23T09:07:35.709Z,2.736440182
2022-09-23T09:08:01.956Z,2.996280193
2022-09-23T09:08:59.605Z,2.47660017
2022-09-23T09:09:59.343Z,2.712080002
2022-09-23T09:10:54.576Z,2.679600239
2022-09-23T09:12:50.493Z,2.533440113
2022-09-23T09:14:24.759Z,2.639000177
2022-09-23T09:16:02.722Z,-0.073080003
2022-09-23T09:16:58.901Z,2.622760057
2022-09-23T09:17:00.570Z,2.622760057
2022-09-23T09:17:00.999Z,2.622760057
2022-09-23T09:17:40.340Z,2.403520107
2022-09-23T09:18:40.261Z,2.265480042
2022-09-23T09:19:38.736Z,2.549680233
2022-09-23T09:20:34.123Z,2.48472023
2022-09-23T09:21:33.999Z,2.712080002
2022-09-23T09:23:28.844Z,2.70396018
2022-09-23T09:24:24.053Z,2.492840052
2022-09-23T09:25:23.565Z,2.630880117
2022-09-23T09:26:18.740Z,2.752680063
2022-09-23T09:27:21.051Z,2.679600239
2022-09-23T09:28:13.824Z,2.947560072
2022-09-23T09:29:34.332Z,3.077480078
2022-09-23T09:29:34.967Z,3.077480078
2022-09-23T09:29:36.212Z,3.077480078
2022-09-23T09:30:10.929Z,3.020640135
2022-09-23T09:31:13.723Z,3.491600037
2022-09-23T09:32:06.731Z,3.564680099
2022-09-23T09:33:06.917Z,3.767680168
2022-09-23T09:34:02.622Z,4.579680443
2022-09-23T09:35:03.010Z,4.084360123
2022-09-23T09:35:59.489Z,4.595920086
2022-09-23T09:37:04.675Z,4.311720371
2022-09-23T09:37:07.205Z,4.311720371
2022-09-23T09:38:00.899Z,4.636520386
2022-09-23T09:38:54.457Z,6.203680038
2022-09-23T09:39:55.228Z,6.861400127
2022-09-23T09:40:51.550Z,6.739600182
2022-09-23T09:42:49.431Z,10.01196003
2022-09-23T09:43:50.821Z,9.045680046
2022-09-23T09:44:47.281Z,7.454160213
2022-09-23T09:45:48.418Z,7.884520531
2022-09-23T09:47:49.050Z,10.40984058
2022-09-23T09:48:43.398Z,10.14188004
2022-09-23T09:49:47.471Z,8.014440536
2022-09-23T09:50:41.905Z,7.169960499
2022-09-23T09:52:43.650Z,7.332360268
2022-09-23T09:53:40.297Z,7.015680313
2022-09-23T09:54:36.473Z,5.951960087
2022-09-23T09:55:37.412Z,5.594680309
2022-09-23T09:56:33.753Z,5.659640312
2022-09-23T09:58:33.881Z,8.704640388
2022-09-23T09:59:30.612Z,9.021320343
2022-09-23T10:01:09.918Z,-0.040600002
2022-09-23T10:02:52.032Z,6.325480461
2022-09-23T10:03:48.898Z,7.787080288
2022-09-23T10:04:47.973Z,8.339240074
2022-09-23T10:05:49.395Z,6.47976017
2022-09-23T10:07:46.525Z,5.342960358
2022-09-23T10:08:42.881Z,6.439160347
2022-09-23T10:09:44.177Z,6.845160484
2022-09-23T10:10:40.778Z,7.835800171
2022-09-23T10:11:42.200Z,6.723360062
2022-09-23T10:12:38.714Z,6.455400467
2022-09-23T10:13:42.555Z,6.203680038
2022-09-23T10:14:36.853Z,6.341720104
2022-09-23T10:15:41.235Z,6.585320473
2022-09-23T10:15:44.923Z,6.585320473
2022-09-23T10:16:36.865Z,5.391680241
2022-09-23T10:17:37.799Z,6.146840096
2022-09-23T10:18:34.117Z,6.236160278
2022-09-23T10:19:32.866Z,5.269880295
2022-09-23T10:20:33.963Z,5.505360126
2022-09-23T10:21:30.321Z,5.960080147
2022-09-23T10:22:34.138Z,5.537840366
2022-09-23T10:23:27.756Z,5.326720238
2022-09-23T10:24:31.514Z,5.724600315
2022-09-23T10:25:25.262Z,5.765200138
2022-09-23T10:26:29.044Z,5.862640381
2022-09-23T10:28:26.640Z,5.903240204
2022-09-23T10:29:20.351Z,5.887000084
2022-09-23T10:30:19.125Z,6.04128027
2022-09-23T10:31:20.438Z,6.544720173
2022-09-23T10:32:16.852Z,6.52848053
2022-09-23T10:33:18.134Z,5.887000084
2022-09-23T10:34:14.292Z,5.286120415
2022-09-23T10:35:18.418Z,5.083120346
2022-09-23T10:36:12.709Z,4.563440323
2022-09-23T10:38:09.394Z,4.116840363
2022-09-23T10:39:12.782Z,3.783920288
2022-09-23T10:40:07.027Z,3.645880222
2022-09-23T10:41:06.880Z,3.304840088
2022-09-23T10:42:48.926Z,-0.081200004
2022-09-23T10:43:28.850Z,5.545960426
2022-09-23T10:44:27.009Z,2.736440182
2022-09-23T10:45:27.149Z,2.93132019
2022-09-23T10:47:45.186Z,-0.089320004
2022-09-23T10:48:25.363Z,3.280480146
2022-09-23T10:49:23.168Z,3.118080139
2022-09-23T10:50:23.396Z,2.93944025
2022-09-23T10:51:22.686Z,3.451000214
2022-09-23T10:51:26.181Z,3.451000214
2022-09-23T10:52:19.586Z,3.483480215
2022-09-23T10:53:15.739Z,3.434760094
2022-09-23T10:54:15.483Z,4.181800365
2022-09-23T10:55:10.888Z,3.824520111
2022-09-23T10:56:11.113Z,3.467240095
2022-09-23T10:57:06.534Z,3.55656004
2022-09-23T10:58:06.761Z,3.621520042
2022-09-23T10:59:02.181Z,3.743320227
2022-09-23T11:00:04.983Z,3.499720097
2022-09-23T11:00:57.920Z,3.329200268
2022-09-23T11:02:00.568Z,3.386040211
2022-09-23T11:02:54.031Z,3.499720097
2022-09-23T11:03:56.233Z,3.386040211
2022-09-23T11:04:49.480Z,3.564680099
2022-09-23T11:05:49.494Z,3.524080276
2022-09-23T11:06:44.857Z,3.451000214
2022-09-23T11:07:45.130Z,3.921960115
2022-09-23T11:08:41.214Z,3.459120274
2022-09-23T11:09:41.202Z,3.832640171
2022-09-23T11:10:46.098Z,3.515960217
2022-09-23T11:10:49.879Z,3.515960217
2022-09-23T11:11:37.743Z,3.686480045
2022-09-23T11:12:33.202Z,3.783920288
2022-09-23T11:13:33.490Z,3.662120104
2022-09-23T11:14:28.961Z,3.613400221
2022-09-23T11:15:31.804Z,3.475360155
2022-09-23T11:16:24.837Z,3.540320158
2022-09-23T11:18:20.753Z,3.702720165
2022-09-23T11:19:18.385Z,3.946320057
2022-09-23T11:20:18.583Z,3.79204011
2022-09-23T11:21:13.930Z,3.873240232
2022-09-23T11:23:36.621Z,-0.081200004
2022-09-23T11:24:16.666Z,3.921960115
2022-09-23T11:25:17.408Z,4.100600243
2022-09-23T11:26:13.644Z,4.068120003
2022-09-23T11:28:12.310Z,3.361680031
2022-09-23T11:29:08.330Z,3.816400051
2022-09-23T11:30:08.697Z,3.475360155
2022-09-23T11:31:04.572Z,3.824520111
2022-09-23T11:33:04.677Z,3.515960217
2022-09-23T11:34:01.974Z,3.361680031
2022-09-23T11:34:58.533Z,3.451000214
2022-09-23T11:35:59.314Z,3.978800297
2022-09-23T11:36:55.516Z,3.727080107
2022-09-23T11:37:56.310Z,3.670240164
2022-09-23T11:38:52.105Z,3.442880154
2022-09-23T11:39:55.401Z,3.759560108
2022-09-23T11:40:49.709Z,3.930080175
2022-09-23T11:41:50.716Z,3.361680031
2022-09-23T11:42:46.955Z,3.296720028
2022-09-23T11:43:47.141Z,3.369800091
2022-09-23T11:44:42.947Z,3.158680201
2022-09-23T11:45:43.455Z,2.890720129
2022-09-23T11:46:39.417Z,2.752680063
2022-09-23T11:48:38.315Z,3.410400152
2022-09-23T11:49:34.107Z,3.410400152
2022-09-23T11:50:38.202Z,3.654000282